createdAt,value
2023-07-29T00:00:15.685Z,0
2023-07-29T00:01:17.352Z,0
2023-07-29T00:02:19.753Z,0
2023-07-29T00:03:22.769Z,0
2023-07-29T00:04:24.486Z,0
2023-07-29T00:05:26.052Z,0
2023-07-29T00:06:27.530Z,0
2023-07-29T00:07:29.190Z,0
2023-07-29T00:08:30.699Z,0
2023-07-29T00:09:32.133Z,0
2023-07-29T00:10:33.617Z,0
2023-07-29T00:11:35.200Z,0
2023-07-29T00:12:36.706Z,0
2023-07-29T00:13:38.432Z,0
2023-07-29T00:14:39.934Z,0
2023-07-29T00:15:41.427Z,0
2023-07-29T00:16:43.617Z,0
2023-07-29T00:17:45.936Z,0
2023-07-29T00:18:47.731Z,0
2023-07-29T00:19:49.245Z,0
2023-07-29T00:20:50.752Z,0
2023-07-29T00:21:52.255Z,0
2023-07-29T00:22:53.764Z,0
2023-07-29T00:23:55.205Z,0
2023-07-29T00:24:56.665Z,0
2023-07-29T00:25:58.174Z,0
2023-07-29T00:26:59.700Z,0
2023-07-29T00:28:01.746Z,0
2023-07-29T00:29:03.418Z,0
2023-07-29T00:30:04.946Z,0
2023-07-29T00:31:07.148Z,0
2023-07-29T00:32:09.518Z,0
2023-07-29T00:33:11.753Z,0
2023-07-29T00:34:13.234Z,0
2023-07-29T00:35:14.956Z,0
2023-07-29T00:36:16.625Z,0
2023-07-29T00:37:18.211Z,0
2023-07-29T00:38:19.970Z,0
2023-07-29T00:39:21.556Z,0
2023-07-29T00:40:23.083Z,0
2023-07-29T00:41:24.533Z,0
2023-07-29T00:42:26.010Z,0
2023-07-29T00:43:27.566Z,0
2023-07-29T00:44:31.752Z,0
2023-07-29T00:45:33.260Z,0
2023-07-29T00:46:37.395Z,0
2023-07-29T00:47:39.538Z,0
2023-07-29T00:48:42.262Z,0
2023-07-29T00:49:44.107Z,0
2023-07-29T00:50:45.618Z,0
2023-07-29T00:51:47.148Z,0
2023-07-29T00:52:48.762Z,0
2023-07-29T00:53:50.401Z,0
2023-07-29T00:54:51.863Z,0
2023-07-29T00:55:53.342Z,0
2023-07-29T00:56:54.821Z,0
2023-07-29T00:57:56.500Z,0
2023-07-29T00:58:57.997Z,0
2023-07-29T00:59:59.632Z,0
2023-07-29T01:01:01.092Z,0
2023-07-29T01:02:03.083Z,0
2023-07-29T01:03:05.664Z,0
2023-07-29T01:04:07.954Z,0
2023-07-29T01:05:09.590Z,0
2023-07-29T01:06:11.100Z,0
2023-07-29T01:07:12.585Z,0
2023-07-29T01:08:14.237Z,0
2023-07-29T01:09:15.975Z,0
2023-07-29T01:10:17.455Z,0
2023-07-29T01:11:18.927Z,0
2023-07-29T01:12:20.429Z,0
2023-07-29T01:13:21.931Z,0
2023-07-29T01:14:23.392Z,0
2023-07-29T01:15:25.019Z,0
2023-07-29T01:16:27.140Z,0
2023-07-29T01:17:28.713Z,0
2023-07-29T01:18:30.287Z,0
2023-07-29T01:19:31.812Z,0
2023-07-29T01:20:33.275Z,0
2023-07-29T01:21:34.785Z,0
2023-07-29T01:22:36.394Z,0
2023-07-29T01:23:37.936Z,0
2023-07-29T01:24:39.510Z,0
2023-07-29T01:25:41.013Z,0
2023-07-29T01:26:42.502Z,0
2023-07-29T01:27:43.989Z,0
2023-07-29T01:28:45.436Z,0
2023-07-29T01:29:46.965Z,0
2023-07-29T01:30:48.757Z,0
2023-07-29T01:31:50.558Z,0
2023-07-29T01:32:52.814Z,0
2023-07-29T01:33:54.477Z,0
2023-07-29T01:34:55.930Z,0
2023-07-29T01:35:57.391Z,0
2023-07-29T01:37:03.821Z,0
2023-07-29T01:38:05.598Z,0
2023-07-29T01:39:07.192Z,0
2023-07-29T01:40:09.222Z,0
2023-07-29T01:41:10.830Z,0
2023-07-29T01:42:12.395Z,0
2023-07-29T01:43:13.967Z,0
2023-07-29T01:44:15.577Z,0
2023-07-29T01:45:19.197Z,0
2023-07-29T01:46:20.837Z,0
2023-07-29T01:47:22.296Z,0
2023-07-29T01:48:23.873Z,0
2023-07-29T01:49:25.516Z,0
2023-07-29T01:50:27.023Z,0
2023-07-29T01:51:28.479Z,0
2023-07-29T01:52:30.016Z,0
2023-07-29T01:53:31.784Z,0
2023-07-29T01:54:33.650Z,0
2023-07-29T01:55:35.895Z,0
2023-07-29T01:56:38.920Z,0
2023-07-29T01:57:40.441Z,0
2023-07-29T01:58:41.893Z,0
2023-07-29T01:59:43.425Z,0
2023-07-29T02:00:44.928Z,0
2023-07-29T02:01:47.013Z,0
2023-07-29T02:02:49.320Z,0
2023-07-29T02:03:50.778Z,0
2023-07-29T02:04:52.482Z,0
2023-07-29T02:05:54.021Z,0
2023-07-29T02:06:55.473Z,0
2023-07-29T02:07:56.957Z,0
2023-07-29T02:08:58.510Z,0
2023-07-29T02:10:00.192Z,0
2023-07-29T02:11:01.918Z,0
2023-07-29T02:12:03.379Z,0
2023-07-29T02:13:04.840Z,0
2023-07-29T02:14:06.459Z,0
2023-07-29T02:15:07.979Z,0
2023-07-29T02:16:09.460Z,0
2023-07-29T02:17:11.767Z,0
2023-07-29T02:18:13.712Z,0
2023-07-29T02:19:15.457Z,0
2023-07-29T02:20:16.929Z,0
2023-07-29T02:21:18.530Z,0
2023-07-29T02:22:19.996Z,0
2023-07-29T02:23:21.535Z,0
2023-07-29T02:24:23.055Z,0
2023-07-29T02:25:24.556Z,0
2023-07-29T02:26:26.137Z,0
2023-07-29T02:27:27.626Z,0
2023-07-29T02:28:29.900Z,0
2023-07-29T02:29:31.432Z,0
2023-07-29T02:30:32.943Z,0
2023-07-29T02:31:35.087Z,0
2023-07-29T02:32:37.792Z,0
2023-07-29T02:33:39.930Z,0
2023-07-29T02:34:41.702Z,0
2023-07-29T02:35:43.177Z,0
2023-07-29T02:36:44.675Z,0
2023-07-29T02:37:46.272Z,0
2023-07-29T02:38:47.967Z,0
2023-07-29T02:39:49.545Z,0
2023-07-29T02:40:53.467Z,0
2023-07-29T02:41:55.117Z,0
2023-07-29T02:42:56.592Z,0
2023-07-29T02:43:58.180Z,0
2023-07-29T02:44:59.646Z,0
2023-07-29T02:46:01.261Z,0
2023-07-29T02:47:03.551Z,0
2023-07-29T02:48:05.828Z,0
2023-07-29T02:49:07.417Z,0.1
2023-07-29T02:50:08.920Z,0.1
2023-07-29T02:51:10.531Z,0.1
2023-07-29T02:52:11.965Z,0.2
2023-07-29T02:53:13.436Z,0.2
2023-07-29T02:54:14.941Z,0.2
2023-07-29T02:55:16.522Z,0.2
2023-07-29T02:56:18.140Z,0.3
2023-07-29T02:57:19.705Z,0.3
2023-07-29T02:58:21.305Z,0.1
2023-07-29T02:59:22.820Z,0.1
2023-07-29T03:00:24.307Z,0.2
2023-07-29T03:01:25.787Z,0.2
2023-07-29T03:02:28.492Z,0.3
2023-07-29T03:03:31.245Z,0.3
2023-07-29T03:04:35.509Z,0.3
2023-07-29T03:05:37.100Z,0.4
2023-07-29T03:06:39.870Z,0.4
2023-07-29T03:07:41.357Z,0.5
2023-07-29T03:08:42.864Z,0.6
2023-07-29T03:09:44.409Z,0.7
2023-07-29T03:10:45.892Z,0.7
2023-07-29T03:11:47.495Z,0.8
2023-07-29T03:12:49.269Z,0.9
2023-07-29T03:13:50.761Z,0.9
2023-07-29T03:14:52.357Z,0.9
2023-07-29T03:15:54.270Z,1.2
2023-07-29T03:16:56.498Z,1.6
2023-07-29T03:17:58.746Z,2
2023-07-29T03:19:00.675Z,2
2023-07-29T03:20:02.353Z,2.2
2023-07-29T03:21:03.809Z,2.9
2023-07-29T03:22:05.508Z,3.2
2023-07-29T03:23:07.013Z,3.4
2023-07-29T03:24:08.805Z,4.2
2023-07-29T03:25:10.506Z,5.2
2023-07-29T03:26:12.620Z,6.4
2023-07-29T03:27:14.148Z,7.3
2023-07-29T03:28:16.444Z,8.4
2023-07-29T03:29:18.221Z,8.5
2023-07-29T03:30:19.691Z,7.8
2023-07-29T03:31:21.678Z,7.8
2023-07-29T03:32:23.601Z,7.7
2023-07-29T03:33:25.208Z,7.4
2023-07-29T03:34:26.774Z,7.6
2023-07-29T03:35:28.230Z,9.3
2023-07-29T03:36:29.696Z,13.6
2023-07-29T03:37:31.227Z,17.8
2023-07-29T03:38:32.740Z,24.3
2023-07-29T03:39:34.224Z,23.6
2023-07-29T03:40:35.735Z,24.3
2023-07-29T03:41:37.305Z,27.2
2023-07-29T03:42:38.834Z,30.8
2023-07-29T03:43:40.430Z,28.6
2023-07-29T03:44:41.893Z,26.6
2023-07-29T03:45:44.072Z,29.5
2023-07-29T03:46:48.585Z,33.8
2023-07-29T03:48:50.038Z,24.7
2023-07-29T03:49:51.532Z,30.4
2023-07-29T03:50:52.989Z,41.6
2023-07-29T03:51:54.471Z,44.1
2023-07-29T03:52:55.948Z,57.6
2023-07-29T03:53:57.393Z,71.3
2023-07-29T03:54:58.868Z,87.8
2023-07-29T03:56:00.426Z,100.1
2023-07-29T03:57:02.241Z,77.4
2023-07-29T03:58:03.794Z,62.3
2023-07-29T03:59:05.455Z,88.9
2023-07-29T04:00:12.203Z,114.5
2023-07-29T04:01:14.396Z,147.6
2023-07-29T04:02:16.062Z,129.6
2023-07-29T04:03:18.315Z,110.9
2023-07-29T04:04:21.347Z,90
2023-07-29T04:05:23.192Z,92.9
2023-07-29T04:06:24.697Z,90.7
2023-07-29T04:07:26.894Z,112.3
2023-07-29T04:08:28.377Z,144.7
2023-07-29T04:09:29.888Z,167.8
2023-07-29T04:10:31.402Z,197.3
2023-07-29T04:11:32.902Z,221.8
2023-07-29T04:12:34.399Z,226.1
2023-07-29T04:13:35.901Z,231.8
2023-07-29T04:14:37.422Z,201.6
2023-07-29T04:15:38.925Z,175.7
2023-07-29T04:16:42.162Z,178.6
2023-07-29T04:17:44.509Z,198.7
2023-07-29T04:18:46.127Z,203
2023-07-29T04:19:48.030Z,208.8
2023-07-29T04:20:49.647Z,240.5
2023-07-29T04:21:51.117Z,260.6
2023-07-29T04:22:52.725Z,239
2023-07-29T04:23:54.220Z,213.1
2023-07-29T04:24:56.004Z,213.1
2023-07-29T04:25:57.663Z,241.9
2023-07-29T04:26:59.208Z,269.3
2023-07-29T04:28:01.366Z,276.5
2023-07-29T04:29:02.849Z,275
2023-07-29T04:30:04.400Z,267.8
2023-07-29T04:31:06.431Z,254.9
2023-07-29T04:32:07.993Z,221.8
2023-07-29T04:33:09.676Z,233.3
2023-07-29T04:34:11.241Z,341.3
2023-07-29T04:35:12.809Z,365.8
2023-07-29T04:36:14.338Z,344.2
2023-07-29T04:37:15.867Z,385.9
2023-07-29T04:38:17.665Z,411.8
2023-07-29T04:39:22.617Z,374.4
2023-07-29T04:41:22.485Z,457.9
2023-07-29T04:42:23.987Z,472.3
2023-07-29T04:43:25.557Z,561.6
2023-07-29T04:44:27.056Z,553
2023-07-29T04:45:29.229Z,714.2
2023-07-29T04:46:30.724Z,846.7
2023-07-29T04:47:32.950Z,944.6
2023-07-29T04:48:34.608Z,1209.6
2023-07-29T04:49:36.162Z,1445.8
2023-07-29T04:50:37.725Z,1543.7
2023-07-29T04:51:39.381Z,1192.3
2023-07-29T04:52:40.865Z,990.7
2023-07-29T04:53:42.416Z,869.8
2023-07-29T04:54:43.962Z,650.9
2023-07-29T04:55:45.892Z,711.4
2023-07-29T04:56:47.413Z,714.2
2023-07-29T04:57:49.048Z,659.5
2023-07-29T04:58:50.554Z,682.6
2023-07-29T04:59:52.036Z,691.2
2023-07-29T05:00:54.227Z,743
2023-07-29T05:01:56.399Z,910.1
2023-07-29T05:02:58.866Z,904.3
2023-07-29T05:04:00.470Z,915.8
2023-07-29T05:05:02.767Z,898.6
2023-07-29T05:06:04.372Z,950.4
2023-07-29T05:07:06.156Z,1244.2
2023-07-29T05:08:07.741Z,1278.7
2023-07-29T05:09:09.195Z,1146.2
2023-07-29T05:10:10.966Z,1077.1
2023-07-29T05:11:12.739Z,1008
2023-07-29T05:12:14.223Z,892.8
2023-07-29T05:13:15.876Z,699.8
2023-07-29T05:14:17.605Z,668.2
2023-07-29T05:15:19.124Z,648
2023-07-29T05:16:21.117Z,590.4
2023-07-29T05:17:23.208Z,599
2023-07-29T05:18:24.866Z,544.3
2023-07-29T05:19:26.370Z,535.7
2023-07-29T05:20:27.893Z,570.2
2023-07-29T05:21:29.388Z,599
2023-07-29T05:22:30.908Z,604.8
2023-07-29T05:23:32.542Z,544.3
2023-07-29T05:24:34.171Z,498.2
2023-07-29T05:25:35.726Z,515.5
2023-07-29T05:26:39.745Z,489.6
2023-07-29T05:27:41.229Z,518.4
2023-07-29T05:28:42.821Z,547.2
2023-07-29T05:29:44.443Z,492.5
2023-07-29T05:30:45.970Z,596.2
2023-07-29T05:31:47.862Z,593.3
2023-07-29T05:32:50.130Z,541.4
2023-07-29T05:33:52.308Z,645.1
2023-07-29T05:34:53.918Z,841
2023-07-29T05:35:55.414Z,1226.9
2023-07-29T05:36:56.924Z,1249.9
2023-07-29T05:37:58.567Z,1002.2
2023-07-29T05:39:00.021Z,892.8
2023-07-29T05:40:01.655Z,1002.2
2023-07-29T05:41:03.148Z,1169.3
2023-07-29T05:42:04.621Z,1232.6
2023-07-29T05:43:06.145Z,1296
2023-07-29T05:44:11.705Z,1497.6
2023-07-29T05:45:13.296Z,1900.8
2023-07-29T05:46:15.525Z,1716.5
2023-07-29T05:47:17.203Z,2188.8
2023-07-29T05:48:18.749Z,2246.4
2023-07-29T05:49:20.247Z,2200.3
2023-07-29T05:50:21.737Z,2557.4
2023-07-29T05:51:23.237Z,1440
2023-07-29T05:52:24.760Z,1601.3
2023-07-29T05:53:26.412Z,1347.8
2023-07-29T05:54:27.927Z,1071.4
2023-07-29T05:55:29.472Z,1134.7
2023-07-29T05:56:31.072Z,1100.2
2023-07-29T05:57:32.554Z,1301.8
2023-07-29T05:58:34.062Z,1180.8
2023-07-29T05:59:35.729Z,1186.6
2023-07-29T06:00:38.049Z,1405.4
2023-07-29T06:01:39.624Z,1797.1
2023-07-29T06:02:41.897Z,2361.6
2023-07-29T06:03:44.467Z,2257.9
2023-07-29T06:04:46.035Z,1866.2
2023-07-29T06:05:47.711Z,1762.6
2023-07-29T06:06:49.213Z,1422.7
2023-07-29T06:07:50.704Z,1647.4
2023-07-29T06:08:52.370Z,2430.7
2023-07-29T06:09:53.865Z,2810.9
2023-07-29T06:10:55.328Z,8248.3
2023-07-29T06:11:57.124Z,11427.8
2023-07-29T06:12:58.612Z,3617.3
2023-07-29T06:14:00.086Z,2741.8
2023-07-29T06:15:01.610Z,3225.6
2023-07-29T06:16:03.268Z,4216.3
2023-07-29T06:17:05.495Z,3847.7
2023-07-29T06:18:07.258Z,2718.7
2023-07-29T06:19:08.874Z,2661.1
2023-07-29T06:20:10.427Z,2350.1
2023-07-29T06:21:11.972Z,2718.7
2023-07-29T06:22:13.673Z,4170.2
2023-07-29T06:23:15.452Z,3156.5
2023-07-29T06:24:17.199Z,2188.8
2023-07-29T06:25:19.357Z,1693.4
2023-07-29T06:26:21.104Z,1728
2023-07-29T06:27:22.584Z,1808.6
2023-07-29T06:28:24.692Z,2211.8
2023-07-29T06:29:26.426Z,2154.2
2023-07-29T06:30:28.832Z,2384.6
2023-07-29T06:31:30.340Z,2557.4
2023-07-29T06:32:32.325Z,2442.2
2023-07-29T06:33:34.047Z,1923.8
2023-07-29T06:34:35.521Z,1474.6
2023-07-29T06:35:37.032Z,1157.8
2023-07-29T06:36:40.828Z,1059.8
2023-07-29T06:37:42.374Z,1376.6
2023-07-29T06:38:43.867Z,1434.2
2023-07-29T06:39:45.538Z,1509.1
2023-07-29T06:40:47.015Z,1221.1
2023-07-29T06:41:48.479Z,1082.9
2023-07-29T06:42:49.965Z,1290.2
2023-07-29T06:43:51.473Z,1509.1
2023-07-29T06:44:52.961Z,1578.2
2023-07-29T06:45:54.486Z,1601.3
2023-07-29T06:46:56.606Z,1497.6
2023-07-29T06:47:58.926Z,1399.7
2023-07-29T06:49:00.731Z,1134.7
2023-07-29T06:50:02.286Z,1221.1
2023-07-29T06:51:03.764Z,1324.8
2023-07-29T06:52:05.269Z,1203.8
2023-07-29T06:53:06.747Z,1088.6
2023-07-29T06:54:08.284Z,1042.6
2023-07-29T06:55:10.060Z,1008
2023-07-29T06:56:11.538Z,996.5
2023-07-29T06:57:13.091Z,979.2
2023-07-29T06:58:14.589Z,904.3
2023-07-29T06:59:16.099Z,846.7
2023-07-29T07:00:17.645Z,665.3
2023-07-29T07:01:19.525Z,682.6
2023-07-29T07:02:21.719Z,613.4
2023-07-29T07:03:24.326Z,532.8
2023-07-29T07:04:26.099Z,564.5
2023-07-29T07:05:27.606Z,576
2023-07-29T07:06:29.165Z,627.8
2023-07-29T07:07:30.631Z,639.4
2023-07-29T07:08:32.143Z,616.3
2023-07-29T07:09:33.640Z,524.2
2023-07-29T07:10:35.276Z,616.3
2023-07-29T07:11:36.773Z,737.3
2023-07-29T07:12:38.737Z,748.8
2023-07-29T07:13:40.341Z,694.1
2023-07-29T07:14:41.913Z,722.9
2023-07-29T07:15:43.413Z,737.3
2023-07-29T07:16:45.701Z,731.5
2023-07-29T07:17:47.977Z,835.2
2023-07-29T07:18:49.784Z,1336.3
2023-07-29T07:19:51.637Z,1520.6
2023-07-29T07:20:53.133Z,1497.6
2023-07-29T07:21:54.756Z,1468.8
2023-07-29T07:22:56.243Z,1647.4
2023-07-29T07:23:57.738Z,2108.2
2023-07-29T07:24:59.209Z,2407.7
2023-07-29T07:26:00.810Z,2718.7
2023-07-29T07:27:02.306Z,2638.1
2023-07-29T07:28:04.255Z,2626.6
2023-07-29T07:29:05.777Z,2764.8
2023-07-29T07:30:07.628Z,2972.2
2023-07-29T07:31:09.214Z,2995.2
2023-07-29T07:32:11.369Z,2926.1
2023-07-29T07:33:13.574Z,2937.6
2023-07-29T07:34:15.081Z,3018.2
2023-07-29T07:35:16.679Z,3064.3
2023-07-29T07:36:18.226Z,3110.4
2023-07-29T07:37:19.712Z,2926.1
2023-07-29T07:38:21.321Z,2914.6
2023-07-29T07:39:22.845Z,2776.3
2023-07-29T07:40:24.491Z,2638.1
2023-07-29T07:41:26.246Z,2995.2
2023-07-29T07:42:27.727Z,3064.3
2023-07-29T07:43:29.224Z,3179.5
2023-07-29T07:44:30.725Z,3225.6
2023-07-29T07:45:32.194Z,2914.6
2023-07-29T07:46:34.667Z,2407.7
2023-07-29T07:47:36.589Z,2442.2
2023-07-29T07:48:38.276Z,2246.4
2023-07-29T07:49:39.762Z,2073.6
2023-07-29T07:50:41.413Z,1716.5
2023-07-29T07:51:42.903Z,1486.1
2023-07-29T07:52:44.396Z,1474.6
2023-07-29T07:53:46.080Z,1370.9
2023-07-29T07:54:47.622Z,1071.4
2023-07-29T07:55:49.167Z,1411.2
2023-07-29T07:56:50.693Z,1566.7
2023-07-29T07:57:52.460Z,1543.7
2023-07-29T07:58:53.951Z,1774.1
2023-07-29T07:59:55.486Z,1981.4
2023-07-29T08:00:57.197Z,1889.3
2023-07-29T08:01:58.815Z,2211.8
2023-07-29T08:03:00.968Z,2499.8
2023-07-29T08:04:03.673Z,2373.1
2023-07-29T08:05:04.999Z,1728
2023-07-29T08:06:11.780Z,1774.1
2023-07-29T08:07:13.300Z,1797.1
2023-07-29T08:08:14.790Z,1843.2
2023-07-29T08:09:16.294Z,1923.8
2023-07-29T08:10:17.819Z,1797.1
2023-07-29T08:11:19.423Z,1785.6
2023-07-29T08:12:21.401Z,1670.4
2023-07-29T08:13:23.023Z,1388.2
2023-07-29T08:14:24.504Z,1330.6
2023-07-29T08:15:25.987Z,1388.2
2023-07-29T08:16:28.106Z,1382.4
2023-07-29T08:17:30.073Z,1445.8
2023-07-29T08:18:32.055Z,1353.6
2023-07-29T08:19:33.676Z,1255.7
2023-07-29T08:20:35.191Z,1117.4
2023-07-29T08:21:36.767Z,1123.2
2023-07-29T08:22:40.753Z,1221.1
2023-07-29T08:23:42.236Z,1169.3
2023-07-29T08:24:43.726Z,973.4
2023-07-29T08:25:45.350Z,944.6
2023-07-29T08:26:46.847Z,846.7
2023-07-29T08:27:48.384Z,642.2
2023-07-29T08:28:51.537Z,794.9
2023-07-29T08:29:52.546Z,956.2
2023-07-29T08:30:54.055Z,1238.4
2023-07-29T08:31:56.119Z,1255.7
2023-07-29T08:32:58.323Z,1129
2023-07-29T08:34:00.025Z,1031
2023-07-29T08:35:01.549Z,1031
2023-07-29T08:36:03.095Z,1238.4
2023-07-29T08:37:07.273Z,1457.3
2023-07-29T08:38:08.758Z,1497.6
2023-07-29T08:39:10.973Z,1376.6
2023-07-29T08:40:12.608Z,1273
2023-07-29T08:41:14.068Z,1186.6
2023-07-29T08:42:15.501Z,1238.4
2023-07-29T08:43:17.046Z,1180.8
2023-07-29T08:44:18.529Z,1353.6
2023-07-29T08:45:20.079Z,1347.8
2023-07-29T08:46:22.192Z,1359.4
2023-07-29T08:47:24.065Z,1520.6
2023-07-29T08:48:25.816Z,1958.4
2023-07-29T08:49:27.343Z,2188.8
2023-07-29T08:50:28.876Z,2465.3
2023-07-29T08:51:30.379Z,2857
2023-07-29T08:52:32.080Z,3156.5
2023-07-29T08:53:33.620Z,2972.2
2023-07-29T08:54:35.138Z,2603.5
2023-07-29T08:55:36.682Z,2142.7
2023-07-29T08:56:40.253Z,1831.7
2023-07-29T08:57:41.756Z,1658.9
2023-07-29T08:58:43.277Z,1543.7
2023-07-29T08:59:44.766Z,1388.2
2023-07-29T09:00:46.970Z,1278.7
2023-07-29T09:01:48.584Z,1198.1
2023-07-29T09:02:51.126Z,1186.6
2023-07-29T09:03:52.927Z,1140.5
2023-07-29T09:04:54.414Z,1117.4
2023-07-29T09:05:55.953Z,1100.2
2023-07-29T09:06:57.501Z,1129
2023-07-29T09:07:59.072Z,1301.8
2023-07-29T09:09:00.612Z,1347.8
2023-07-29T09:10:02.124Z,1601.3
2023-07-29T09:11:03.630Z,2142.7
2023-07-29T09:12:05.124Z,2350.1
2023-07-29T09:13:06.630Z,3018.2
2023-07-29T09:14:11.013Z,4239.4
2023-07-29T09:15:12.537Z,8064
2023-07-29T09:16:14.501Z,5737
2023-07-29T09:17:16.875Z,5345.3
2023-07-29T09:18:18.477Z,5898.2
2023-07-29T09:19:20.077Z,5506.6
2023-07-29T09:20:21.604Z,8893.4
2023-07-29T09:21:23.249Z,6036.5
2023-07-29T09:22:24.752Z,5829.1
2023-07-29T09:23:26.333Z,6727.7
2023-07-29T09:24:27.800Z,10460.2
2023-07-29T09:25:29.320Z,10921
2023-07-29T09:26:30.834Z,7741.4
2023-07-29T09:27:32.287Z,6773.8
2023-07-29T09:28:34.155Z,9722.9
2023-07-29T09:29:35.778Z,7925.8
2023-07-29T09:30:37.849Z,9400.3
2023-07-29T09:31:39.459Z,7695.4
2023-07-29T09:32:41.361Z,6958.1
2023-07-29T09:33:42.921Z,3709.4
2023-07-29T09:34:44.441Z,4953.6
2023-07-29T09:35:45.979Z,7925.8
2023-07-29T09:36:47.716Z,6266.9
2023-07-29T09:37:49.257Z,7971.8
2023-07-29T09:38:50.807Z,7326.7
2023-07-29T09:39:52.352Z,5529.6
2023-07-29T09:40:53.941Z,5114.9
2023-07-29T09:41:55.459Z,5207
2023-07-29T09:42:56.978Z,6405.1
2023-07-29T09:43:58.443Z,7418.9
2023-07-29T09:44:59.979Z,4193.3
2023-07-29T09:46:02.004Z,6497.3
2023-07-29T09:47:03.591Z,9077.8
2023-07-29T09:48:05.626Z,7004.2
2023-07-29T09:49:07.640Z,5621.8
2023-07-29T09:50:09.172Z,6174.7
2023-07-29T09:51:10.755Z,10045.4
2023-07-29T09:52:12.290Z,6773.8
2023-07-29T09:53:13.972Z,5598.7
2023-07-29T09:54:15.684Z,9031.7
2023-07-29T09:55:17.245Z,8340.5
2023-07-29T09:56:18.764Z,7925.8
2023-07-29T09:57:20.906Z,7925.8
2023-07-29T09:58:22.800Z,8110.1
2023-07-29T09:59:24.309Z,7741.4
2023-07-29T10:00:26.494Z,7465
2023-07-29T10:01:28.533Z,7787.5
2023-07-29T10:02:30.712Z,4170.2
2023-07-29T10:03:33.192Z,7326.7
2023-07-29T10:04:34.790Z,4285.4
2023-07-29T10:05:36.350Z,8248.3
2023-07-29T10:06:40.790Z,8663
2023-07-29T10:07:42.169Z,8663
2023-07-29T10:08:43.671Z,6681.6
2023-07-29T10:09:45.293Z,4400.6
2023-07-29T10:10:46.912Z,3617.3
2023-07-29T10:11:48.469Z,3225.6
2023-07-29T10:12:49.994Z,3409.9
2023-07-29T10:14:10.067Z,7511
2023-07-29T10:15:11.578Z,7649.3
2023-07-29T10:16:13.875Z,7418.9
2023-07-29T10:17:15.503Z,7142.4
2023-07-29T10:18:17.145Z,4538.9
2023-07-29T10:19:18.644Z,6589.4
2023-07-29T10:20:20.181Z,6082.6
2023-07-29T10:21:21.666Z,4262.4
2023-07-29T10:22:23.224Z,3363.8
2023-07-29T10:23:25.060Z,5852.2
2023-07-29T10:24:26.545Z,3386.9
2023-07-29T10:25:28.207Z,4032
2023-07-29T10:26:29.823Z,7326.7
2023-07-29T10:27:31.344Z,7280.6
2023-07-29T10:28:34.218Z,3594.2
2023-07-29T10:29:36.412Z,3893.8
2023-07-29T10:30:37.976Z,4193.3
2023-07-29T10:31:39.672Z,5690.9
2023-07-29T10:32:42.264Z,6589.4
2023-07-29T10:33:44.930Z,5276.2
2023-07-29T10:34:46.626Z,4469.8
2023-07-29T10:35:48.277Z,7695.4
2023-07-29T10:36:49.782Z,4377.6
2023-07-29T10:37:51.331Z,4377.6
2023-07-29T10:38:52.976Z,4331.5
2023-07-29T10:39:54.550Z,4746.2
2023-07-29T10:40:56.148Z,7603.2
2023-07-29T10:41:57.864Z,7603.2
2023-07-29T10:42:59.473Z,7188.5
2023-07-29T10:44:00.981Z,7050.2
2023-07-29T10:45:02.456Z,7004.2
2023-07-29T10:46:18.020Z,6773.8
2023-07-29T10:47:20.012Z,6635.5
2023-07-29T10:48:21.611Z,6589.4
2023-07-29T10:49:23.094Z,6589.4
2023-07-29T10:50:25.089Z,7280.6
2023-07-29T10:51:26.752Z,7511
2023-07-29T10:52:28.297Z,5990.4
2023-07-29T10:53:29.773Z,4400.6
2023-07-29T10:54:31.538Z,8017.9
2023-07-29T10:55:33.172Z,8294.4
2023-07-29T10:56:37.851Z,8202.2
2023-07-29T10:57:39.086Z,8017.9
2023-07-29T10:58:40.543Z,7557.1
2023-07-29T10:59:42.115Z,7188.5
2023-07-29T11:00:43.630Z,4446.7
2023-07-29T11:01:46.013Z,7465
2023-07-29T11:02:48.211Z,5345.3
2023-07-29T11:03:49.772Z,5091.8
2023-07-29T11:04:52.108Z,4585
2023-07-29T11:05:54.995Z,4700.2
2023-07-29T11:06:56.574Z,5713.9
2023-07-29T11:07:58.119Z,5667.8
2023-07-29T11:08:59.597Z,5552.6
2023-07-29T11:10:01.423Z,7188.5
2023-07-29T11:11:02.969Z,5875.2
2023-07-29T11:12:04.626Z,7971.8
2023-07-29T11:13:06.144Z,6865.9
2023-07-29T11:14:07.713Z,7326.7
2023-07-29T11:15:09.303Z,7465
2023-07-29T11:16:11.305Z,6727.7
2023-07-29T11:17:12.980Z,6635.5
2023-07-29T11:18:15.323Z,6589.4
2023-07-29T11:19:16.931Z,4861.4
2023-07-29T11:20:18.512Z,5806.1
2023-07-29T11:21:20.324Z,5322.2
2023-07-29T11:22:21.795Z,6635.5
2023-07-29T11:23:23.370Z,4700.2
2023-07-29T11:24:24.858Z,4631
2023-07-29T11:25:26.470Z,4838.4
2023-07-29T11:26:27.954Z,5114.9
2023-07-29T11:27:29.530Z,6405.1
2023-07-29T11:28:32.032Z,5414.4
2023-07-29T11:29:33.564Z,5322.2
2023-07-29T11:30:35.668Z,7741.4
2023-07-29T11:31:37.668Z,7833.6
2023-07-29T11:32:39.901Z,7833.6
2023-07-29T11:33:41.452Z,6359
2023-07-29T11:34:42.955Z,5598.7
2023-07-29T11:35:44.421Z,5644.8
2023-07-29T11:36:45.932Z,8156.2
2023-07-29T11:37:47.805Z,5368.3
2023-07-29T11:38:49.418Z,4953.6
2023-07-29T11:39:50.963Z,6912
2023-07-29T11:40:52.473Z,7557.1
2023-07-29T11:41:54.046Z,5898.2
2023-07-29T11:42:55.613Z,5022.7
2023-07-29T11:43:57.183Z,4354.6
2023-07-29T11:44:58.822Z,4193.3
2023-07-29T11:46:00.659Z,4147.2
2023-07-29T11:47:02.612Z,4101.1
2023-07-29T11:48:05.501Z,3801.6
2023-07-29T11:49:07.430Z,3456
2023-07-29T11:50:09.146Z,3317.8
2023-07-29T11:51:11.068Z,3248.6
2023-07-29T11:52:12.596Z,2914.6
2023-07-29T11:53:18.626Z,2442.2
2023-07-29T11:54:20.346Z,2142.7
2023-07-29T11:55:21.882Z,2223.4
2023-07-29T11:56:23.465Z,2165.8
2023-07-29T11:57:24.994Z,1843.2
2023-07-29T11:58:26.696Z,1693.4
2023-07-29T11:59:28.324Z,1624.3
2023-07-29T12:00:29.872Z,1468.8
2023-07-29T12:01:32.146Z,1180.8
2023-07-29T12:02:34.428Z,973.4
2023-07-29T12:03:36.641Z,904.3
2023-07-29T12:04:38.296Z,933.1
2023-07-29T12:05:39.821Z,1031
2023-07-29T12:06:44.727Z,990.7
2023-07-29T12:07:46.472Z,875.5
2023-07-29T12:08:48.587Z,714.2
2023-07-29T12:09:50.235Z,601.9
2023-07-29T12:10:51.967Z,555.8
2023-07-29T12:11:53.436Z,521.3
2023-07-29T12:12:54.978Z,489.6
2023-07-29T12:13:56.887Z,475.2
2023-07-29T12:14:58.403Z,437.8
2023-07-29T12:15:59.969Z,391.7
2023-07-29T12:17:02.740Z,360
2023-07-29T12:18:05.267Z,338.4
2023-07-29T12:19:06.986Z,342.7
2023-07-29T12:20:08.574Z,357.1
2023-07-29T12:21:10.050Z,355.7
2023-07-29T12:22:11.805Z,324
2023-07-29T12:23:13.596Z,349.9
2023-07-29T12:24:15.248Z,371.5
2023-07-29T12:25:16.745Z,397.4
2023-07-29T12:26:18.232Z,406.1
2023-07-29T12:27:19.901Z,411.8
2023-07-29T12:28:21.967Z,429.1
2023-07-29T12:29:23.637Z,452.2
2023-07-29T12:30:25.141Z,466.6
2023-07-29T12:31:27.128Z,446.4
2023-07-29T12:32:29.554Z,426.2
2023-07-29T12:33:31.326Z,455
2023-07-29T12:34:32.944Z,541.4
2023-07-29T12:35:34.760Z,550.1
2023-07-29T12:36:38.248Z,504
2023-07-29T12:37:39.473Z,460.8
2023-07-29T12:38:40.988Z,437.8
2023-07-29T12:39:42.485Z,429.1
2023-07-29T12:40:44.089Z,440.6
2023-07-29T12:41:45.588Z,466.6
2023-07-29T12:42:47.095Z,512.6
2023-07-29T12:43:48.752Z,576
2023-07-29T12:44:50.404Z,676.8
2023-07-29T12:45:51.868Z,817.9
2023-07-29T12:46:53.932Z,1008
2023-07-29T12:47:57.029Z,1393.9
2023-07-29T12:48:58.526Z,1647.4
2023-07-29T12:50:00.037Z,1854.7
2023-07-29T12:51:01.720Z,2073.6
2023-07-29T12:52:03.212Z,2304
2023-07-29T12:53:04.726Z,2580.5
2023-07-29T12:54:06.216Z,2868.5
2023-07-29T12:55:07.885Z,3179.5
2023-07-29T12:56:10.640Z,3525.1
2023-07-29T12:57:12.324Z,3847.7
2023-07-29T12:58:13.860Z,4170.2
2023-07-29T12:59:15.469Z,4423.7
2023-07-29T13:00:17.117Z,4492.8
2023-07-29T13:01:19.824Z,4515.8
2023-07-29T13:02:22.227Z,4561.9
2023-07-29T13:03:24.696Z,4631
2023-07-29T13:04:26.301Z,4723.2
2023-07-29T13:05:27.816Z,4815.4
2023-07-29T13:06:34.362Z,5022.7
2023-07-29T13:07:36.149Z,4907.5
2023-07-29T13:08:37.649Z,5045.8
2023-07-29T13:09:39.662Z,5299.2
2023-07-29T13:10:41.166Z,5022.7
2023-07-29T13:11:43.450Z,4838.4
2023-07-29T13:12:44.966Z,4884.5
2023-07-29T13:13:48.812Z,4677.1
2023-07-29T13:15:49.969Z,4585
2023-07-29T13:16:51.889Z,4930.6
2023-07-29T13:17:54.031Z,4331.5
2023-07-29T13:18:55.665Z,4055
2023-07-29T13:19:57.155Z,4538.9
2023-07-29T13:20:58.761Z,4700.2
2023-07-29T13:22:00.595Z,3709.4
2023-07-29T13:23:02.186Z,3571.2
2023-07-29T13:24:06.739Z,4538.9
2023-07-29T13:25:08.524Z,3340.8
2023-07-29T13:26:10.060Z,3041.3
2023-07-29T13:27:11.599Z,3041.3
2023-07-29T13:28:13.915Z,3110.4
2023-07-29T13:29:15.804Z,2822.4
2023-07-29T13:30:17.403Z,2361.6
2023-07-29T13:31:19.442Z,2522.9
2023-07-29T13:32:21.144Z,2465.3
2023-07-29T13:33:22.754Z,2534.4
2023-07-29T13:34:24.245Z,3202.6